Time;durP1;ratioP1;P1;durP2;ratioP2;P2;SDS_P1;SDS_P2;PMS_P1;PMS_P2;Temp;Humidity;BMP_temperature;BMP_pressure;BME280_temperature;BME280_humidity;BME280_pressure;Samples;Min_cycle;Max_cycle;Signal;HPM_P1;HPM_P2
2021/07/31 00:00:18;;;;;;;;;;;;;;;22.92;68.05;95988.07;219666;264;98975;-58
2021/07/31 00:01:19;;;;;;;;;;;;;;;22.84;68.12;95987.13;219411;264;264484;-60
2021/07/31 00:02:22;;;;;;;;;;;;;;;22.86;68.14;95988.94;219525;264;179724;-55
2021/07/31 00:03:24;;;;;;;;;;;;;;;22.85;68.24;95990.11;218416;265;175499;-55
2021/07/31 00:04:25;;;;;;;;;;;;;;;22.86;68.26;95993.08;218909;265;99483;-54
2021/07/31 00:05:26;;;;;;;;;;;;;;;22.91;68.07;95990.03;218767;265;98950;-59
2021/07/31 00:06:28;;;;;;;;;;;;;;;22.88;67.96;95990.78;219042;265;98896;-59
2021/07/31 00:07:29;;;;;;;;;;;;;;;22.91;68.09;95993.38;218750;265;98975;-55
2021/07/31 00:08:30;;;;;;;;;;;;;;;22.90;67.92;95991.79;218907;265;98939;-59
2021/07/31 00:09:32;;;;;;;;;;;;;;;22.87;68.03;95991.95;218831;265;177862;-58
2021/07/31 00:10:35;;;;;;;;;;;;;;;22.88;67.92;95992.16;218671;265;176078;-56
2021/07/31 00:11:36;;;;;;;;;;;;;;;22.90;67.77;95993.17;218995;265;67463;-57
2021/07/31 00:12:37;;;;;;;;;;;;;;;22.91;67.65;95994.18;219225;264;98998;-57
2021/07/31 00:13:39;;;;;;;;;;;;;;;22.92;67.64;95990.25;219298;264;98966;-59
2021/07/31 00:14:40;;;;;;;;;;;;;;;22.96;67.53;95992.48;219401;264;174621;-59
2021/07/31 00:15:41;;;;;;;;;;;;;;;22.94;67.62;95992.05;218604;265;264980;-59
2021/07/31 00:16:43;;;;;;;;;;;;;;;22.92;67.70;95991.63;219084;265;177853;-58
2021/07/31 00:17:44;;;;;;;;;;;;;;;22.93;67.69;95986.91;218780;265;176124;-58
2021/07/31 00:18:45;;;;;;;;;;;;;;;22.90;67.70;95986.27;218871;265;99475;-59
2021/07/31 00:19:47;;;;;;;;;;;;;;;22.91;67.69;95990.03;218883;265;97960;-55
2021/07/31 00:20:48;;;;;;;;;;;;;;;22.92;67.70;95991.63;219015;265;98009;-59
2021/07/31 00:21:49;;;;;;;;;;;;;;;22.86;67.85;95987.56;218904;265;98016;-58
2021/07/31 00:22:51;;;;;;;;;;;;;;;22.90;67.69;95989.82;218994;265;97984;-55
2021/07/31 00:23:52;;;;;;;;;;;;;;;22.91;67.66;95988.66;218737;265;176007;-58
2021/07/31 00:24:53;;;;;;;;;;;;;;;22.92;67.71;95990.25;218666;265;174094;-57
2021/07/31 00:25:55;;;;;;;;;;;;;;;22.90;67.71;95987.06;219209;265;100059;-59
2021/07/31 00:26:56;;;;;;;;;;;;;;;22.92;67.78;95989.45;218841;265;98970;-59
2021/07/31 00:27:57;;;;;;;;;;;;;;;22.89;67.79;95988.23;219024;265;98975;-59
2021/07/31 00:28:59;;;;;;;;;;;;;;;22.89;67.82;95988.23;218819;265;98856;-59
2021/07/31 00:30:00;;;;;;;;;;;;;;;22.92;67.82;95981.16;219049;265;98970;-59
2021/07/31 00:31:01;;;;;;;;;;;;;;;22.93;67.70;95990.46;218660;265;177861;-60
2021/07/31 00:32:03;;;;;;;;;;;;;;;22.91;67.78;95990.03;219634;264;177921;-58
2021/07/31 00:33:04;;;;;;;;;;;;;;;22.90;67.77;95990.41;219577;264;98939;-58
2021/07/31 00:34:05;;;;;;;;;;;;;;;22.90;67.76;95984.30;219621;264;99428;-55
2021/07/31 00:35:07;;;;;;;;;;;;;;;22.89;67.84;95981.32;218961;265;98859;-60
2021/07/31 00:36:08;;;;;;;;;;;;;;;22.91;67.91;95983.13;218868;265;98937;-59
2021/07/31 00:37:09;;;;;;;;;;;;;;;22.86;67.89;95980.66;218810;265;97921;-58
2021/07/31 00:38:11;;;;;;;;;;;;;;;22.88;67.80;95982.48;218740;265;175886;-59
2021/07/31 00:39:12;;;;;;;;;;;;;;;22.89;67.83;95982.70;218704;265;174193;-59
2021/07/31 00:40:13;;;;;;;;;;;;;;;22.90;67.72;95978.77;218873;265;98082;-58
2021/07/31 00:41:15;;;;;;;;;;;;;;;22.89;67.76;95981.32;218815;265;96960;-57
2021/07/31 00:42:16;;;;;;;;;;;;;;;22.90;67.78;95982.91;219001;265;98950;-58
2021/07/31 00:43:17;;;;;;;;;;;;;;;22.90;67.72;95984.30;218772;265;98950;-59
2021/07/31 00:44:19;;;;;;;;;;;;;;;22.92;67.73;95982.55;219448;264;99093;-58
2021/07/31 00:45:20;;;;;;;;;;;;;;;22.91;67.78;95985.89;219425;264;177230;-57
2021/07/31 00:46:21;;;;;;;;;;;;;;;22.90;67.77;95984.30;219511;264;176176;-58
2021/07/31 00:47:23;;;;;;;;;;;;;;;22.90;67.76;95989.82;219627;264;99025;-58
2021/07/31 00:48:24;;;;;;;;;;;;;;;22.90;67.82;95988.44;219643;264;98985;-58
2021/07/31 00:49:25;;;;;;;;;;;;;;;22.88;67.90;95988.02;219762;264;100217;-56
2021/07/31 00:50:28;;;;;;;;;;;;;;;22.87;67.94;95998.85;219641;264;99029;-59
2021/07/31 00:51:29;;;;;;;;;;;;;;;22.91;67.87;95993.38;219247;264;263198;-60
2021/07/31 00:52:31;;;;;;;;;;;;;;;22.91;67.89;95999.70;219129;265;177243;-56
2021/07/31 00:53:33;;;;;;;;;;;;;;;22.90;68.05;95990.41;219204;264;176138;-59
2021/07/31 00:54:34;;;;;;;;;;;;;;;22.87;68.13;95993.33;219674;264;99439;-60
2021/07/31 00:55:36;;;;;;;;;;;;;;;22.87;68.24;95986.42;219497;264;99016;-58
2021/07/31 00:56:38;;;;;;;;;;;;;;;22.84;68.34;95992.66;219280;264;98931;-59
2021/07/31 00:57:39;;;;;;;;;;;;;;;22.87;68.18;95989.19;218692;265;173619;-59
2021/07/31 00:58:41;;;;;;;;;;;;;;;22.88;68.17;95989.40;219005;265;262452;-58
2021/07/31 00:59:42;;;;;;;;;;;;;;;22.86;68.29;95984.80;218775;265;177162;-59
2021/07/31 01:00:43;;;;;;;;;;;;;;;22.86;68.40;95982.03;218770;265;175589;-59
2021/07/31 01:01:45;;;;;;;;;;;;;;;22.89;68.20;95980.52;218863;265;98870;-58
2021/07/31 01:02:46;;;;;;;;;;;;;;;22.89;68.19;95976.37;218883;265;100302;-61
2021/07/31 01:03:47;;;;;;;;;;;;;;;22.87;68.22;95980.89;219190;265;98951;-57
2021/07/31 01:04:49;;;;;;;;;;;;;;;22.85;68.09;95985.16;219731;264;98781;-58
2021/07/31 01:05:50;;;;;;;;;;;;;;;22.84;68.12;95989.89;219662;264;98010;-55
2021/07/31 01:06:51;;;;;;;;;;;;;;;22.87;68.16;95993.33;218861;265;176122;-58
2021/07/31 01:07:53;;;;;;;;;;;;;;;22.86;68.13;95997.23;219228;265;174253;-56
2021/07/31 01:08:54;;;;;;;;;;;;;;;22.84;68.51;95998.77;218855;265;98008;-58
2021/07/31 01:09:55;;;;;;;;;;;;;;;22.82;68.52;95993.58;218652;265;97962;-58
2021/07/31 01:10:57;;;;;;;;;;;;;;;22.81;68.48;95997.52;219194;264;98974;-56
2021/07/31 01:11:58;;;;;;;;;;;;;;;22.80;68.63;95990.39;219657;264;98927;-58
2021/07/31 01:13:00;;;;;;;;;;;;;;;22.80;68.50;95995.92;219779;264;100321;-59
2021/07/31 01:14:01;;;;;;;;;;;;;;;22.81;68.50;95994.17;218943;264;177852;-59
2021/07/31 01:15:02;;;;;;;;;;;;;;;22.81;68.53;95987.26;218597;265;177563;-58
2021/07/31 01:16:04;;;;;;;;;;;;;;;22.81;68.57;95994.75;218856;265;98950;-56
2021/07/31 01:17:06;;;;;;;;;;;;;;;22.81;68.98;95990.61;218901;265;99504;-59
2021/07/31 01:18:07;;;;;;;;;;;;;;;22.83;68.86;95996.56;219056;265;98950;-55
2021/07/31 01:19:08;;;;;;;;;;;;;;;22.82;68.77;95990.81;218882;265;98796;-58
2021/07/31 01:20:10;;;;;;;;;;;;;;;22.79;68.70;95988.21;218664;265;163372;-57
2021/07/31 01:21:11;;;;;;;;;;;;;;;22.81;68.57;95986.47;218751;265;176809;-59
2021/07/31 01:22:12;;;;;;;;;;;;;;;22.84;68.41;95994.63;218775;265;175642;-57
2021/07/31 01:23:14;;;;;;;;;;;;;;;22.83;68.42;95995.77;219151;264;97996;-55
2021/07/31 01:24:15;;;;;;;;;;;;;;;22.78;68.57;95992.73;218909;265;97983;-58
2021/07/31 01:25:17;;;;;;;;;;;;;;;22.80;68.53;95993.16;218980;265;98938;-56
2021/07/31 01:26:18;;;;;;;;;;;;;;;22.83;68.51;95994.38;218914;265;98959;-57
2021/07/31 01:27:20;;;;;;;;;;;;;;;22.82;68.45;96000.48;219077;265;98978;-59
2021/07/31 01:28:21;;;;;;;;;;;;;;;22.81;68.48;95998.89;218786;265;177012;-59
2021/07/31 01:29:22;;;;;;;;;;;;;;;22.79;68.50;95996.50;218727;265;173970;-58
2021/07/31 01:30:24;;;;;;;;;;;;;;;22.82;68.62;95996.34;218898;265;97812;-59
2021/07/31 01:31:25;;;;;;;;;;;;;;;22.79;68.58;95995.70;218884;265;98008;-60
2021/07/31 01:32:26;;;;;;;;;;;;;;;22.79;68.52;96006.75;219066;265;98045;-58
2021/07/31 01:33:28;;;;;;;;;;;;;;;22.78;68.72;95998.25;218813;265;99149;-55
2021/07/31 01:34:29;;;;;;;;;;;;;;;22.75;68.76;95995.61;219061;265;98942;-57
2021/07/31 01:35:30;;;;;;;;;;;;;;;22.76;68.69;95997.83;218694;265;177146;-58
2021/07/31 01:36:32;;;;;;;;;;;;;;;22.78;68.75;95996.88;218788;265;175469;-56
2021/07/31 01:37:33;;;;;;;;;;;;;;;22.77;68.76;95993.90;219081;264;98941;-59
2021/07/31 01:38:34;;;;;;;;;;;;;;;22.74;68.67;95994.61;219696;264;99454;-59
2021/07/31 01:39:35;;;;;;;;;;;;;;;22.78;68.57;95996.29;219767;264;99003;-58
2021/07/31 01:40:37;;;;;;;;;;;;;;;22.77;68.49;95995.28;219006;264;98951;-58
2021/07/31 01:41:38;;;;;;;;;;;;;;;22.79;68.61;95988.80;218765;265;98958;-59
2021/07/31 01:42:39;;;;;;;;;;;;;;;22.79;68.62;95995.70;219068;264;178879;-58
2021/07/31 01:43:41;;;;;;;;;;;;;;;22.76;68.62;95995.06;219376;264;176163;-57
2021/07/31 01:44:42;;;;;;;;;;;;;;;22.78;68.55;95992.73;219644;264;97974;-57
2021/07/31 01:45:43;;;;;;;;;;;;;;;22.80;68.61;95991.77;219561;264;98075;-56
2021/07/31 01:46:45;;;;;;;;;;;;;;;22.80;68.50;95995.33;219756;264;98586;-59
2021/07/31 01:47:46;;;;;;;;;;;;;;;22.79;68.50;95995.12;219320;264;98008;-58
2021/07/31 01:48:47;;;;;;;;;;;;;;;22.78;68.48;95997.67;219039;265;98037;-58
2021/07/31 01:49:49;;;;;;;;;;;;;;;22.79;68.49;95999.27;218730;265;177260;-58
2021/07/31 01:50:50;;;;;;;;;;;;;;;22.81;68.32;95993.38;218729;265;175556;-55
2021/07/31 01:51:52;;;;;;;;;;;;;;;22.83;68.23;95996.56;218868;265;98966;-57
2021/07/31 01:52:53;;;;;;;;;;;;;;;22.86;68.04;95995.05;219482;264;98946;-59
2021/07/31 01:53:54;;;;;;;;;;;;;;;22.83;68.22;95991.03;219736;264;98966;-58
2021/07/31 01:54:55;;;;;;;;;;;;;;;22.86;68.45;95992.28;219561;264;100018;-55
2021/07/31 01:55:57;;;;;;;;;;;;;;;22.85;68.26;95999.78;219754;264;98951;-57
2021/07/31 01:56:58;;;;;;;;;;;;;;;22.84;68.32;95996.00;219484;264;177880;-57
2021/07/31 01:57:59;;;;;;;;;;;;;;;22.84;68.30;95994.04;218816;264;178328;-55
2021/07/31 01:59:01;;;;;;;;;;;;;;;22.89;68.06;95992.95;218851;265;98950;-58
2021/07/31 02:00:02;;;;;;;;;;;;;;;22.85;68.16;95995.64;218815;265;99010;-58
2021/07/31 02:01:03;;;;;;;;;;;;;;;22.86;68.01;95990.32;218973;265;98947;-56
2021/07/31 02:02:05;;;;;;;;;;;;;;;22.89;67.92;95986.05;218875;265;97952;-58
2021/07/31 02:03:07;;;;;;;;;;;;;;;22.91;67.95;95991.42;219775;264;99003;-58
2021/07/31 02:04:08;;;;;;;;;;;;;;;22.86;67.98;95987.56;219292;264;177140;-59
2021/07/31 02:05:09;;;;;;;;;;;;;;;22.86;68.04;95990.32;219441;264;175388;-58
2021/07/31 02:06:10;;;;;;;;;;;;;;;22.88;68.09;95988.02;219661;264;98919;-59
2021/07/31 02:07:12;;;;;;;;;;;;;;;22.87;68.06;95990.56;219218;264;98952;-60
2021/07/31 02:08:13;;;;;;;;;;;;;;;22.87;68.11;95990.56;218977;264;99002;-59
2021/07/31 02:09:14;;;;;;;;;;;;;;;22.87;68.02;95990.56;219791;264;100335;-59
2021/07/31 02:10:16;;;;;;;;;;;;;;;22.89;67.95;95988.23;218941;264;98952;-60
2021/07/31 02:11:17;;;;;;;;;;;;;;;22.88;68.04;95985.25;218764;265;177819;-60
2021/07/31 02:12:18;;;;;;;;;;;;;;;22.91;67.94;95983.72;218743;265;176144;-57
2021/07/31 02:13:20;;;;;;;;;;;;;;;22.90;67.95;95984.88;218805;265;97997;-58
2021/07/31 02:14:21;;;;;;;;;;;;;;;22.89;68.04;95984.09;218659;265;97981;-56
2021/07/31 02:15:22;;;;;;;;;;;;;;;22.87;68.09;95985.04;218984;265;98049;-59
2021/07/31 02:16:24;;;;;;;;;;;;;;;22.89;68.14;95985.47;218834;265;98066;-58
2021/07/31 02:17:25;;;;;;;;;;;;;;;22.88;68.19;95985.84;219507;265;97958;-58
2021/07/31 02:18:26;;;;;;;;;;;;;;;22.86;68.24;95985.38;218774;265;176210;-58
2021/07/31 02:19:28;;;;;;;;;;;;;;;22.88;68.07;95987.22;218742;265;175353;-55
2021/07/31 02:20:29;;;;;;;;;;;;;;;22.86;67.97;95983.41;218671;265;98954;-58
2021/07/31 02:21:31;;;;;;;;;;;;;;;22.85;68.09;95983.78;219366;265;98936;-59
2021/07/31 02:22:32;;;;;;;;;;;;;;;22.85;68.10;95986.55;219083;265;98952;-57
2021/07/31 02:23:33;;;;;;;;;;;;;;;22.83;68.27;95985.51;218864;265;98987;-59
2021/07/31 02:24:34;;;;;;;;;;;;;;;22.84;68.19;95981.61;219057;265;100073;-58
2021/07/31 02:25:36;;;;;;;;;;;;;;;22.87;68.14;95986.42;218650;265;177913;-55
2021/07/31 02:26:37;;;;;;;;;;;;;;;22.83;68.23;95979.98;218721;265;176176;-56
2021/07/31 02:27:38;;;;;;;;;;;;;;;22.84;68.20;95979.43;218859;265;99020;-58
2021/07/31 02:28:40;;;;;;;;;;;;;;;22.87;68.30;95983.66;218839;265;98956;-60
2021/07/31 02:29:41;;;;;;;;;;;;;;;22.81;68.64;95987.84;219018;265;98954;-58
2021/07/31 02:30:42;;;;;;;;;;;;;;;22.83;68.38;95990.23;219463;264;97993;-58
2021/07/31 02:31:44;;;;;;;;;;;;;;;22.83;68.26;95990.23;219331;264;97993;-58
2021/07/31 02:32:45;;;;;;;;;;;;;;;22.81;68.27;95986.47;218685;265;175935;-56
2021/07/31 02:33:46;;;;;;;;;;;;;;;22.82;68.21;95989.44;218690;265;174435;-52
2021/07/31 02:34:48;;;;;;;;;;;;;;;22.84;68.21;95992.66;218828;265;97997;-56
2021/07/31 02:35:49;;;;;;;;;;;;;;;22.84;68.10;95989.09;218795;265;96974;-58
2021/07/31 02:36:50;;;;;;;;;;;;;;;22.85;68.20;95997.59;219552;265;98930;-56
2021/07/31 02:37:52;;;;;;;;;;;;;;;22.85;68.05;95994.25;218886;265;98930;-58
2021/07/31 02:38:53;;;;;;;;;;;;;;;22.85;68.08;95994.84;219025;265;98914;-59
2021/07/31 02:39:54;;;;;;;;;;;;;;;22.87;68.04;96000.82;218744;265;179055;-56
2021/07/31 02:40:56;;;;;;;;;;;;;;;22.87;68.06;95996.67;218689;265;176203;-56
2021/07/31 02:41:57;;;;;;;;;;;;;;;22.84;68.25;96000.95;218847;265;98906;-58
2021/07/31 02:42:58;;;;;;;;;;;;;;;22.84;68.20;95998.77;218787;265;98931;-57
2021/07/31 02:44:00;;;;;;;;;;;;;;;22.83;68.14;95996.56;218808;265;98972;-58
2021/07/31 02:45:01;;;;;;;;;;;;;;;22.81;68.20;95994.75;218829;265;99494;-60
2021/07/31 02:46:03;;;;;;;;;;;;;;;22.80;68.39;95997.30;219072;265;98189;-59
2021/07/31 02:47:04;;;;;;;;;;;;;;;22.77;68.45;95996.08;218721;265;177256;-55
2021/07/31 02:48:06;;;;;;;;;;;;;;;22.74;68.95;95999.55;218699;265;176069;-57
2021/07/31 02:49:07;;;;;;;;;;;;;;;22.74;68.83;95995.98;218812;265;98934;-56
2021/07/31 02:50:08;;;;;;;;;;;;;;;22.75;68.61;95994.23;218866;265;98930;-58
2021/07/31 02:51:10;;;;;;;;;;;;;;;22.78;68.56;96003.20;219452;264;98767;-56
2021/07/31 02:52:11;;;;;;;;;;;;;;;22.76;68.43;95999.20;219666;264;98035;-58
2021/07/31 02:53:12;;;;;;;;;;;;;;;22.75;68.35;96000.34;219639;264;97976;-58
2021/07/31 02:54:14;;;;;;;;;;;;;;;22.74;68.54;96002.89;218757;265;175862;-57
2021/07/31 02:55:15;;;;;;;;;;;;;;;22.73;68.34;96001.30;218607;265;174319;-58
2021/07/31 02:56:16;;;;;;;;;;;;;;;22.76;68.27;96004.73;219403;264;98024;-58
2021/07/31 02:57:18;;;;;;;;;;;;;;;22.75;68.28;96005.28;219637;264;97163;-60
2021/07/31 02:58:19;;;;;;;;;;;;;;;22.77;68.36;96006.33;219660;264;100241;-58
2021/07/31 02:59:20;;;;;;;;;;;;;;;22.76;68.07;96007.49;218852;265;98935;-56
2021/07/31 03:00:22;;;;;;;;;;;;;;;22.74;68.20;96011.98;219067;265;99009;-58
2021/07/31 03:01:23;;;;;;;;;;;;;;;22.74;68.27;96010.59;218692;265;177299;-58
2021/07/31 03:02:25;;;;;;;;;;;;;;;22.76;68.06;96008.29;218750;265;175770;-58
2021/07/31 03:03:27;;;;;;;;;;;;;;;22.79;68.04;96010.31;218786;265;98000;-58
2021/07/31 03:04:28;;;;;;;;;;;;;;;22.78;67.95;96012.86;218843;265;98120;-58
2021/07/31 03:05:29;;;;;;;;;;;;;;;22.79;67.95;96013.66;219272;265;97068;-57
2021/07/31 03:06:31;;;;;;;;;;;;;;;22.77;68.03;96011.85;218916;265;98991;-58
2021/07/31 03:07:32;;;;;;;;;;;;;;;22.76;68.12;96019.34;218547;265;263471;-55
2021/07/31 03:08:34;;;;;;;;;;;;;;;22.76;68.08;96011.64;218754;265;177973;-57
2021/07/31 03:09:35;;;;;;;;;;;;;;;22.81;67.94;96016.84;218760;265;176071;-60
2021/07/31 03:10:36;;;;;;;;;;;;;;;22.78;67.90;96020.35;218894;265;98942;-59
2021/07/31 03:11:38;;;;;;;;;;;;;;;22.74;67.92;96018.88;218855;265;99025;-59
2021/07/31 03:12:39;;;;;;;;;;;;;;;22.73;68.01;96016.49;219059;265;97918;-59
2021/07/31 03:13:41;;;;;;;;;;;;;;;22.76;68.07;96020.72;218788;265;98906;-56
2021/07/31 03:14:42;;;;;;;;;;;;;;;22.77;67.91;96011.85;219038;265;98935;-57
2021/07/31 03:15:44;;;;;;;;;;;;;;;22.75;68.04;96011.39;218693;265;177949;-59
2021/07/31 03:16:45;;;;;;;;;;;;;;;22.75;68.13;96008.05;218582;265;176807;-59
2021/07/31 03:17:46;;;;;;;;;;;;;;;22.77;67.97;96020.14;218886;265;97984;-59
2021/07/31 03:18:48;;;;;;;;;;;;;;;22.75;67.80;96019.09;218878;265;98108;-56
2021/07/31 03:19:49;;;;;;;;;;;;;;;22.78;67.71;96022.53;219065;265;99137;-57
2021/07/31 03:20:50;;;;;;;;;;;;;;;22.76;68.03;96017.16;219498;264;98939;-54
2021/07/31 03:21:52;;;;;;;;;;;;;;;22.77;67.85;96018.76;219878;264;98939;-59
2021/07/31 03:22:53;;;;;;;;;;;;;;;22.76;67.78;96022.10;219367;264;179624;-60
2021/07/31 03:23:54;;;;;;;;;;;;;;;22.73;67.74;96022.81;218698;265;177538;-58
2021/07/31 03:24:56;;;;;;;;;;;;;;;22.72;68.10;96020.42;218940;265;98952;-59
2021/07/31 03:25:57;;;;;;;;;;;;;;;22.76;67.87;96017.16;218851;265;99008;-59
2021/07/31 03:26:59;;;;;;;;;;;;;;;22.69;67.57;96019.19;219025;265;97997;-58
2021/07/31 03:28:00;;;;;;;;;;;;;;;22.68;67.84;96016.80;218899;265;98021;-58
2021/07/31 03:29:01;;;;;;;;;;;;;;;22.73;68.21;96019.25;219067;265;98845;-56
2021/07/31 03:30:03;;;;;;;;;;;;;;;22.71;68.54;96028.49;218833;265;178477;-56
2021/07/31 03:31:04;;;;;;;;;;;;;;;22.72;68.42;96023.98;218719;265;175493;-59
2021/07/31 03:32:05;;;;;;;;;;;;;;;22.67;68.68;96030.39;218902;265;100201;-57
2021/07/31 03:33:07;;;;;;;;;;;;;;;22.69;68.49;96027.48;218802;265;98843;-60
2021/07/31 03:34:08;;;;;;;;;;;;;;;22.70;68.67;96028.27;219043;265;98930;-57
2021/07/31 03:35:09;;;;;;;;;;;;;;;22.70;68.86;96023.55;218702;265;98983;-58
2021/07/31 03:36:11;;;;;;;;;;;;;;;22.69;68.66;96032.20;219829;264;98844;-56
2021/07/31 03:37:12;;;;;;;;;;;;;;;22.70;68.67;96022.75;219531;264;177863;-56
2021/07/31 03:38:13;;;;;;;;;;;;;;;22.71;68.68;96032.05;219531;264;176082;-59
2021/07/31 03:39:15;;;;;;;;;;;;;;;22.75;68.45;96032.91;219622;264;98752;-58
2021/07/31 03:40:16;;;;;;;;;;;;;;;22.77;68.22;96031.19;219525;264;98940;-57
2021/07/31 03:41:17;;;;;;;;;;;;;;;22.74;67.99;96027.17;219069;265;97988;-54
2021/07/31 03:42:19;;;;;;;;;;;;;;;22.77;68.18;96035.33;219209;264;97910;-59
2021/07/31 03:43:20;;;;;;;;;;;;;;;22.74;68.06;96030.52;219040;264;98024;-58
2021/07/31 03:44:21;;;;;;;;;;;;;;;22.74;67.94;96030.52;218770;265;175883;-56
2021/07/31 03:45:23;;;;;;;;;;;;;;;22.73;68.19;96031.68;218665;265;174151;-57
2021/07/31 03:46:24;;;;;;;;;;;;;;;22.75;67.88;96032.11;218852;265;97061;-57
2021/07/31 03:47:25;;;;;;;;;;;;;;;22.72;68.10;96033.64;219233;264;98935;-59
2021/07/31 03:48:27;;;;;;;;;;;;;;;22.71;68.23;96032.63;219226;264;98795;-59
2021/07/31 03:49:28;;;;;;;;;;;;;;;22.72;68.25;96038.37;218867;265;98927;-57
2021/07/31 03:50:29;;;;;;;;;;;;;;;22.72;68.08;96033.64;219042;265;98939;-58
2021/07/31 03:51:31;;;;;;;;;;;;;;;22.72;68.25;96034.23;219049;264;177956;-61
2021/07/31 03:52:32;;;;;;;;;;;;;;;22.72;68.23;96028.70;219532;264;176178;-59
2021/07/31 03:53:33;;;;;;;;;;;;;;;22.71;68.29;96027.11;219634;264;98935;-58
2021/07/31 03:54:35;;;;;;;;;;;;;;;22.71;68.23;96024.34;219109;265;99523;-59
2021/07/31 03:55:36;;;;;;;;;;;;;;;22.69;68.13;96028.86;218920;265;98917;-57
2021/07/31 03:56:37;;;;;;;;;;;;;;;22.68;68.29;96029.23;218854;265;98938;-58
2021/07/31 03:57:39;;;;;;;;;;;;;;;22.69;68.28;96033.59;219023;265;98095;-57
2021/07/31 03:58:40;;;;;;;;;;;;;;;22.69;68.35;96032.20;218776;265;175905;-59
2021/07/31 03:59:41;;;;;;;;;;;;;;;22.66;67.94;96031.56;219077;264;174283;-58
2021/07/31 04:00:43;;;;;;;;;;;;;;;22.67;68.29;96034.54;219634;264;98969;-57
2021/07/31 04:01:44;;;;;;;;;;;;;;;22.68;68.28;96034.75;219607;264;98822;-58
2021/07/31 04:02:45;;;;;;;;;;;;;;;22.69;67.98;96038.53;218997;265;99409;-59
2021/07/31 04:03:47;;;;;;;;;;;;;;;22.70;68.07;96036.56;218527;265;98938;-56
2021/07/31 04:04:48;;;;;;;;;;;;;;;22.71;68.03;96032.63;219024;265;99000;-57
2021/07/31 04:05:49;;;;;;;;;;;;;;;22.67;68.28;96031.78;218658;265;179158;-52
2021/07/31 04:06:51;;;;;;;;;;;;;;;22.65;68.22;96034.91;218700;265;176055;-56
2021/07/31 04:07:52;;;;;;;;;;;;;;;22.67;68.21;96031.78;219319;264;100234;-58
2021/07/31 04:08:53;;;;;;;;;;;;;;;22.67;68.14;96037.30;219517;264;98939;-58
2021/07/31 04:09:55;;;;;;;;;;;;;;;22.66;68.26;96033.74;219446;264;97960;-57
2021/07/31 04:10:56;;;;;;;;;;;;;;;22.66;68.37;96033.74;218900;265;98004;-59
2021/07/31 04:11:57;;;;;;;;;;;;;;;22.65;68.19;96031.31;219041;265;98012;-56
2021/07/31 04:12:59;;;;;;;;;;;;;;;22.69;68.10;96032.20;218772;265;175992;-57
2021/07/31 04:14:00;;;;;;;;;;;;;;;22.66;68.11;96026.04;219169;264;174274;-58
2021/07/31 04:15:01;;;;;;;;;;;;;;;22.65;68.22;96029.38;218795;265;97071;-58
2021/07/31 04:16:03;;;;;;;;;;;;;;;22.70;68.02;96033.80;219002;265;98938;-60
2021/07/31 04:17:04;;;;;;;;;;;;;;;22.66;68.00;96028.22;219876;264;98956;-56
2021/07/31 04:18:05;;;;;;;;;;;;;;;22.67;68.06;96033.16;219592;264;100217;-59
2021/07/31 04:19:07;;;;;;;;;;;;;;;22.67;67.95;96029.02;219466;264;99519;-59
2021/07/31 04:20:08;;;;;;;;;;;;;;;22.69;67.87;96036.35;218794;265;177831;-55
2021/07/31 04:21:09;;;;;;;;;;;;;;;22.68;68.10;96034.75;218775;265;177865;-60
2021/07/31 04:22:11;;;;;;;;;;;;;;;22.66;68.23;96037.88;218895;265;98926;-56
2021/07/31 04:23:12;;;;;;;;;;;;;;;22.69;68.23;96036.35;218864;265;98959;-58
2021/07/31 04:24:13;;;;;;;;;;;;;;;22.68;68.14;96033.38;218988;265;98927;-57
2021/07/31 04:25:15;;;;;;;;;;;;;;;22.67;68.29;96034.54;218821;265;98890;-56
2021/07/31 04:26:16;;;;;;;;;;;;;;;22.64;68.36;96033.86;219067;265;98012;-58
2021/07/31 04:27:18;;;;;;;;;;;;;;;22.63;68.35;96037.20;218787;265;176820;-56
2021/07/31 04:28:19;;;;;;;;;;;;;;;22.61;68.31;96031.25;218717;265;176853;-58
2021/07/31 04:29:20;;;;;;;;;;;;;;;22.61;68.36;96036.78;219213;264;98939;-58
2021/07/31 04:30:22;;;;;;;;;;;;;;;22.63;68.39;96036.41;218912;265;98828;-58
2021/07/31 04:31:23;;;;;;;;;;;;;;;22.60;68.36;96035.77;219039;265;98950;-56
2021/07/31 04:32:24;;;;;;;;;;;;;;;22.61;68.15;96038.75;218911;265;99024;-55
2021/07/31 04:33:26;;;;;;;;;;;;;;;22.58;68.38;96035.34;218998;265;98824;-55
2021/07/31 04:34:27;;;;;;;;;;;;;;;22.60;68.34;96042.09;218752;265;177985;-54
2021/07/31 04:35:28;;;;;;;;;;;;;;;22.59;68.27;96046.59;218670;265;176701;-58
2021/07/31 04:36:30;;;;;;;;;;;;;;;22.57;68.36;96042.03;218911;265;99306;-55
2021/07/31 04:37:33;;;;;;;;;;;;;;;22.60;68.20;96034.39;218880;265;98951;-58
2021/07/31 04:38:34;;;;;;;;;;;;;;;22.63;68.07;96040.55;219203;265;98935;-57
2021/07/31 04:39:37;;;;;;;;;;;;;;;22.62;68.04;96043.09;218773;265;176104;-56
2021/07/31 04:40:39;;;;;;;;;;;;;;;22.63;68.07;96046.08;218642;265;262772;-58
2021/07/31 04:41:40;;;;;;;;;;;;;;;22.63;67.97;96046.08;218775;265;177161;-57
2021/07/31 04:42:42;;;;;;;;;;;;;;;22.63;68.07;96041.94;218753;265;176264;-57
2021/07/31 04:43:43;;;;;;;;;;;;;;;22.63;68.09;96038.59;218775;265;98942;-55
2021/07/31 04:44:44;;;;;;;;;;;;;;;22.63;67.96;96035.03;218893;265;98967;-57
2021/07/31 04:45:46;;;;;;;;;;;;;;;22.62;67.94;96038.95;218966;265;98045;-53
2021/07/31 04:46:47;;;;;;;;;;;;;;;22.62;67.93;96037.58;218931;265;98004;-59
2021/07/31 04:47:48;;;;;;;;;;;;;;;22.61;67.85;96038.75;219087;265;98016;-57
2021/07/31 04:48:50;;;;;;;;;;;;;;;22.58;67.96;96042.24;218539;265;175470;-55
2021/07/31 04:49:51;;;;;;;;;;;;;;;22.60;67.96;96045.44;218998;265;174414;-55
2021/07/31 04:50:52;;;;;;;;;;;;;;;22.59;68.00;96039.70;218697;265;97070;-56
2021/07/31 04:51:54;;;;;;;;;;;;;;;22.60;68.07;96039.91;219065;265;99044;-57
2021/07/31 04:52:55;;;;;;;;;;;;;;;22.58;68.09;96045.00;219872;264;98947;-57
2021/07/31 04:53:56;;;;;;;;;;;;;;;22.62;68.08;96044.48;219656;264;98955;-54
2021/07/31 04:54:58;;;;;;;;;;;;;;;22.59;68.16;96047.40;219837;264;99056;-58
2021/07/31 04:55:59;;;;;;;;;;;;;;;22.63;67.97;96046.08;219277;264;177818;-56
2021/07/31 04:57:00;;;;;;;;;;;;;;;22.60;67.89;96048.99;219527;264;176133;-57
2021/07/31 04:58:02;;;;;;;;;;;;;;;22.57;67.91;96045.59;219690;264;99105;-57
2021/07/31 04:59:03;;;;;;;;;;;;;;;22.58;68.16;96050.52;219435;264;98973;-54
2021/07/31 05:00:04;;;;;;;;;;;;;;;22.59;68.29;96052.92;219521;265;98963;-56
2021/07/31 05:01:06;;;;;;;;;;;;;;;22.60;68.05;96042.67;218874;265;98843;-57
2021/07/31 05:02:07;;;;;;;;;;;;;;;22.60;67.88;96046.81;219036;265;97955;-59
2021/07/31 05:03:08;;;;;;;;;;;;;;;22.58;67.88;96040.86;219006;264;175887;-56
2021/07/31 05:04:10;;;;;;;;;;;;;;;22.58;67.91;96042.24;219524;264;175782;-58
2021/07/31 05:05:11;;;;;;;;;;;;;;;22.60;67.60;96050.95;219581;264;97993;-54
2021/07/31 05:06:12;;;;;;;;;;;;;;;22.60;68.04;96045.44;218976;265;98017;-59
2021/07/31 05:07:14;;;;;;;;;;;;;;;22.55;68.05;96054.82;219025;265;97096;-58
2021/07/31 05:08:15;;;;;;;;;;;;;;;22.59;67.99;96046.02;218854;265;98935;-58
2021/07/31 05:09:16;;;;;;;;;;;;;;;22.60;68.07;96048.20;219033;265;98946;-54
2021/07/31 05:10:18;;;;;;;;;;;;;;;22.61;67.84;96042.89;218756;265;178082;-54
2021/07/31 05:11:21;;;;;;;;;;;;;;;22.58;67.82;96055.47;219473;264;176096;-57
2021/07/31 05:12:22;;;;;;;;;;;;;;;22.59;67.66;96054.88;219732;264;67275;-56
2021/07/31 05:13:23;;;;;;;;;;;;;;;22.56;67.69;96044.57;218878;265;98950;-55
2021/07/31 05:14:26;;;;;;;;;;;;;;;22.55;68.04;96044.36;218990;265;100267;-58
2021/07/31 05:15:27;;;;;;;;;;;;;;;22.55;68.21;96048.50;218922;265;172782;-58
2021/07/31 05:16:29;;;;;;;;;;;;;;;22.51;68.23;96049.20;218928;264;262084;-57
2021/07/31 05:17:30;;;;;;;;;;;;;;;22.52;68.19;96057.70;218780;265;177840;-59